Forside
METAR-TAF:

METAR-TAF

Lufthavne :

Beaver Island Airport

Beaver Island, Michigan, USA

Breddekreds: 45-41-32N, længdekreds: 085-33-59W, højde: 204 m

Aktuelle vejr

Denne rapport blev lavet for 17 minutter siden, kl. 18:16 UTC
Vind 13 kt fra sydvest med vindstød på up til 24 kt
Temperatur 4°C
Fugtighed 81%
Tryk 1006 hPa
Sigt: 16.1 km
Brudte skyer i en højde af 1500 ft

METAR: KSJX 231816Z AUTO 22013G24KT 10SM BKN015 04/01 A2972 RMK AO2 T00390005

Tid: 13:33 (18:33 UTC)


TAF: fraværende

Vejrobservationer og prognoser fra mere end 4000 lufthavne (METAR og TAF).

De gule og røde prikker repræsenterer de meteorologiske stationer.

Flyt musen over at se navnet på stationen.

Så klik over at se vejr observationer og prognoser.

At skifte det kort: Klik på de grønne knapper med et sort kors for at zoome ind; på den grønne knap med en bindestreg for at zoome ud; eller på de grønne pile for tilstødende kort.


METAR-TAF: